Time;durP1;ratioP1;P1;durP2;ratioP2;P2;SDS_P1;SDS_P2;PMS_P1;PMS_P2;Temp;Humidity;BMP_temperature;BMP_pressure;BME280_temperature;BME280_humidity;BME280_pressure;Samples;Min_cycle;Max_cycle;Signal;HPM_P1;HPM_P2
2021/07/10 00:01:19;;;;;;;15.35;6.25;;;;;;;17.42;92.85;99883.28;1677150;84;21129;-68
2021/07/10 00:03:48;;;;;;;12.98;6.78;;;;;;;17.42;92.98;99886.05;1674443;84;21473;-68
2021/07/10 00:06:14;;;;;;;9.80;6.35;;;;;;;17.42;93.07;99883.28;1676874;84;20906;-68
2021/07/10 00:08:41;;;;;;;12.43;6.50;;;;;;;17.41;93.01;99881.66;1634963;84;21025;-68
2021/07/10 00:11:09;;;;;;;16.12;7.25;;;;;;;17.41;93.01;99881.66;1674195;84;21551;-67
2021/07/10 00:13:37;;;;;;;13.75;6.83;;;;;;;17.35;92.96;99876.13;1676779;85;21005;-67
2021/07/10 00:16:05;;;;;;;11.73;7.03;;;;;;;17.33;93.07;99884.03;1671520;84;21035;-67
2021/07/10 00:18:32;;;;;;;11.75;6.75;;;;;;;17.30;93.24;99888.91;1669363;85;20918;-66
2021/07/10 00:21:00;;;;;;;12.82;7.25;;;;;;;17.27;93.39;99880.70;1676404;84;20940;-68
2021/07/10 00:23:26;;;;;;;11.15;7.42;;;;;;;17.25;93.32;99881.63;1662477;84;21037;-67
2021/07/10 00:25:52;;;;;;;12.47;6.60;;;;;;;17.22;93.36;99879.56;1669899;84;21789;-67
2021/07/10 00:28:19;;;;;;;33.60;16.12;;;;;;;17.20;93.50;99883.27;1677812;84;20941;-67
2021/07/10 00:30:46;;;;;;;34.38;15.70;;;;;;;17.17;93.73;99885.36;1671776;84;21000;-67
2021/07/10 00:33:12;;;;;;;36.77;17.92;;;;;;;17.16;93.86;99888.71;1673307;84;20924;-67
2021/07/10 00:35:39;;;;;;;36.65;15.90;;;;;;;17.11;93.92;99877.86;1677011;85;21001;-67
2021/07/10 00:38:06;;;;;;;35.70;17.35;;;;;;;17.10;94.04;99880.41;1672830;84;21143;-67
2021/07/10 00:40:32;;;;;;;32.45;16.85;;;;;;;17.08;94.16;99878.56;1675545;85;20914;-67
2021/07/10 00:43:00;;;;;;;28.55;16.52;;;;;;;17.04;94.18;99877.64;1677060;85;21021;-67
2021/07/10 00:45:26;;;;;;;33.48;16.82;;;;;;;17.03;94.28;99877.42;1669000;84;21036;-67
2021/07/10 00:47:53;;;;;;;31.73;15.63;;;;;;;17.00;94.20;99870.38;1664728;84;21033;-67
2021/07/10 00:50:21;;;;;;;22.50;11.73;;;;;;;16.97;94.43;99868.30;1648448;84;21062;-66
2021/07/10 00:52:48;;;;;;;26.48;12.13;;;;;;;16.95;94.94;99868.66;1673601;84;20968;-68
2021/07/10 00:55:15;;;;;;;18.75;9.95;;;;;;;17.00;95.22;99868.41;1669079;84;20992;-68
2021/07/10 00:57:42;;;;;;;16.27;9.38;;;;;;;17.01;94.96;99871.41;1675449;84;20999;-68
2021/07/10 01:00:13;;;;;;;22.85;10.60;;;;;;;17.01;94.97;99864.48;1675542;85;21469;-68
2021/07/10 01:02:40;;;;;;;15.35;9.53;;;;;;;17.03;94.88;99858.59;1677810;84;21809;-67
2021/07/10 01:05:11;;;;;;;14.23;9.83;;;;;;;17.00;94.48;99860.09;1672573;84;21126;-68
2021/07/10 01:07:39;;;;;;;18.57;10.35;;;;;;;16.96;94.28;99863.92;1661770;85;20973;-67
2021/07/10 01:10:09;;;;;;;19.07;9.60;;;;;;;16.90;94.36;99859.77;1667363;85;21049;-67
2021/07/10 01:12:38;;;;;;;20.32;11.73;;;;;;;16.84;94.73;99856.43;1675444;85;21025;-67
2021/07/10 01:15:09;;;;;;;19.12;11.05;;;;;;;16.84;94.95;99859.20;1675856;84;21785;-67
2021/07/10 01:17:37;;;;;;;24.95;12.75;;;;;;;16.80;94.89;99856.33;1674390;85;21028;-68
2021/07/10 01:20:10;;;;;;;19.85;11.15;;;;;;;16.78;94.84;99859.22;1676030;84;21084;-67
2021/07/10 01:22:38;;;;;;;23.22;11.18;;;;;;;16.73;95.11;99857.52;1674679;84;21021;-67
2021/07/10 01:25:09;;;;;;;21.57;10.18;;;;;;;16.75;95.55;99857.17;1678631;84;21524;-67
2021/07/10 01:27:36;;;;;;;23.70;11.28;;;;;;;16.76;95.34;99855.98;1673768;85;21236;-67
2021/07/10 01:30:09;;;;;;;20.97;11.30;;;;;;;16.73;95.00;99850.59;1673271;84;20937;-68
2021/07/10 01:32:36;;;;;;;24.02;11.97;;;;;;;16.68;94.73;99852.80;1675332;85;21553;-67
2021/07/10 01:35:04;;;;;;;20.82;12.15;;;;;;;16.62;94.66;99840.30;1670900;84;20996;-67
2021/07/10 01:37:31;;;;;;;23.52;13.30;;;;;;;16.58;94.95;99834.64;1674067;84;21066;-67
2021/07/10 01:39:57;;;;;;;23.32;13.30;;;;;;;16.57;95.14;99836.38;1643344;85;21891;-68
2021/07/10 01:42:24;;;;;;;25.00;12.23;;;;;;;16.56;95.19;99831.99;1664812;85;20953;-68
2021/07/10 01:44:51;;;;;;;29.10;16.20;;;;;;;16.53;95.30;99830.72;1671435;84;21043;-68
2021/07/10 01:47:18;;;;;;;26.17;13.95;;;;;;;16.52;95.43;99829.11;1675799;85;21525;-68
2021/07/10 01:49:45;;;;;;;32.45;13.40;;;;;;;16.49;95.65;99825.64;1672951;84;20954;-70
2021/07/10 01:52:11;;;;;;;27.55;15.58;;;;;;;16.44;95.65;99835.00;1675589;84;22267;-70
2021/07/10 01:54:39;;;;;;;35.08;15.63;;;;;;;16.42;95.86;99832.35;1676771;84;20985;-70
2021/07/10 01:57:10;;;;;;;25.82;14.87;;;;;;;16.40;96.07;99832.70;1677021;84;21583;-70
2021/07/10 01:59:38;;;;;;;35.50;17.65;;;;;;;16.38;96.16;99832.81;1678722;84;20997;-70
2021/07/10 02:02:06;;;;;;;36.85;17.37;;;;;;;16.39;96.37;99839.97;1675488;85;20978;-69
2021/07/10 02:04:33;;;;;;;39.80;20.08;;;;;;;16.37;96.13;99842.28;1678384;84;21761;-70
2021/07/10 02:07:00;;;;;;;50.63;22.17;;;;;;;16.34;96.36;99841.02;1662841;85;21077;-70
2021/07/10 02:09:28;;;;;;;40.23;19.35;;;;;;;16.33;96.48;99841.36;1673521;84;20977;-70
2021/07/10 02:11:57;;;;;;;43.87;22.62;;;;;;;16.33;96.65;99837.20;1675200;85;20949;-70
2021/07/10 02:14:24;;;;;;;48.38;25.50;;;;;;;16.33;96.82;99829.70;1677182;85;21161;-69
2021/07/10 02:16:51;;;;;;;58.75;28.98;;;;;;;16.36;96.91;99836.51;1671007;84;21075;-69
2021/07/10 02:19:20;;;;;;;68.83;34.03;;;;;;;16.37;96.99;99831.20;1668890;84;21547;-69
2021/07/10 02:21:47;;;;;;;73.97;37.05;;;;;;;16.37;97.01;99829.23;1676296;85;20925;-70
2021/07/10 02:24:14;;;;;;;74.62;37.73;;;;;;;16.36;96.99;99829.00;1674967;84;20986;-69
2021/07/10 02:26:41;;;;;;;74.03;36.90;;;;;;;16.35;97.15;99830.73;1648767;84;21132;-69
2021/07/10 02:29:08;;;;;;;77.90;35.90;;;;;;;16.37;97.45;99834.78;1675424;85;21608;-69
2021/07/10 02:31:36;;;;;;;79.75;36.90;;;;;;;16.39;97.59;99834.43;1675291;85;21484;-69
2021/07/10 02:34:03;;;;;;;66.60;34.25;;;;;;;16.39;97.62;99832.47;1673131;84;20917;-70
2021/07/10 02:36:30;;;;;;;77.20;37.00;;;;;;;16.41;97.67;99830.16;1675922;84;21012;-69
2021/07/10 02:38:57;;;;;;;75.28;34.33;;;;;;;16.44;97.59;99835.58;1673793;85;21128;-69
2021/07/10 02:41:24;;;;;;;70.17;34.00;;;;;;;16.45;97.84;99839.39;1648558;85;21197;-69
2021/07/10 02:43:51;;;;;;;73.97;34.15;;;;;;;16.49;98.05;99836.16;1676169;84;21002;-69
2021/07/10 02:46:18;;;;;;;62.27;30.70;;;;;;;16.54;98.02;99836.50;1689680;83;20904;-69
2021/07/10 02:48:46;;;;;;;54.65;28.62;;;;;;;16.59;98.16;99836.26;1672361;83;21600;-70
2021/07/10 02:51:14;;;;;;;63.20;27.93;;;;;;;16.65;98.08;99836.28;1702328;83;21059;-70
2021/07/10 02:53:41;;;;;;;55.70;27.75;;;;;;;16.71;98.10;99840.43;1673895;83;21107;-70
2021/07/10 02:56:07;;;;;;;58.83;29.32;;;;;;;16.75;98.10;99837.77;1688061;83;20991;-70
2021/07/10 02:58:34;;;;;;;56.18;26.60;;;;;;;16.79;98.27;99826.98;1677839;83;20995;-69
2021/07/10 03:01:00;;;;;;;60.60;28.27;;;;;;;16.86;98.50;99827.77;1700763;83;21028;-67
2021/07/10 03:03:27;;;;;;;56.35;26.05;;;;;;;16.91;98.41;99826.14;1675162;84;21387;-67
2021/07/10 03:05:53;;;;;;;55.08;25.68;;;;;;;16.94;98.46;99826.83;1673727;84;21172;-68
2021/07/10 03:08:21;;;;;;;49.18;24.45;;;;;;;16.97;98.55;99823.36;1672804;84;21163;-67
2021/07/10 03:10:49;;;;;;;46.20;25.15;;;;;;;17.03;98.90;99824.72;1668655;84;20933;-66
2021/07/10 03:13:16;;;;;;;54.85;23.83;;;;;;;17.10;99.18;99822.16;1665710;85;20997;-68
2021/07/10 03:15:43;;;;;;;51.88;23.62;;;;;;;17.18;99.28;99820.39;1672557;85;20921;-68
2021/07/10 03:18:09;;;;;;;49.88;22.87;;;;;;;17.27;99.56;99823.02;1649784;84;21778;-68
2021/07/10 03:20:37;;;;;;;47.10;24.02;;;;;;;17.37;99.67;99825.25;1675606;84;21438;-67
2021/07/10 03:23:04;;;;;;;47.13;21.60;;;;;;;17.47;99.76;99826.13;1677135;85;20906;-67
2021/07/10 03:25:30;;;;;;;45.88;21.05;;;;;;;17.59;99.94;99824.68;1674059;84;21013;-67
2021/07/10 03:27:57;;;;;;;46.70;20.72;;;;;;;17.70;100.00;99817.47;1632221;85;21094;-69
2021/07/10 03:30:25;;;;;;;37.73;20.25;;;;;;;17.85;100.00;99821.43;1621920;86;23385;-68
2021/07/10 03:32:53;;;;;;;42.55;20.80;;;;;;;17.96;100.00;99823.06;1622102;87;21074;-74
2021/07/10 03:35:21;;;;;;;39.38;20.32;;;;;;;18.04;100.00;99817.91;1678986;85;20996;-68
2021/07/10 03:37:49;;;;;;;38.80;19.55;;;;;;;18.14;100.00;99816.78;1676667;83;21537;-68
2021/07/10 03:40:19;;;;;;;39.00;20.15;;;;;;;18.28;100.00;99823.27;1651144;84;21128;-68
2021/07/10 03:42:46;;;;;;;38.15;17.67;;;;;;;18.48;99.62;99811.63;1650273;85;21153;-67
2021/07/10 03:45:13;;;;;;;39.30;15.63;;;;;;;18.69;98.61;99820.46;1651828;85;20956;-67
2021/07/10 03:47:39;;;;;;;45.03;15.68;;;;;;;18.89;97.33;99811.56;1609087;88;21037;-67
2021/07/10 03:50:09;;;;;;;29.92;15.00;;;;;;;19.11;96.29;99812.78;1615885;87;21060;-69
2021/07/10 03:52:35;;;;;;;27.82;14.33;;;;;;;19.28;95.26;99810.14;1612172;87;21198;-67
2021/07/10 03:55:06;;;;;;;25.80;13.35;;;;;;;19.46;94.84;99802.95;1613290;87;21872;-67
2021/07/10 03:57:32;;;;;;;30.62;13.00;;;;;;;19.60;94.57;99797.67;1586889;88;20929;-69
2021/07/10 04:00:01;;;;;;;26.50;11.70;;;;;;;19.73;94.00;99792.12;1649260;85;20997;-69
2021/07/10 04:02:27;;;;;;;21.25;11.90;;;;;;;19.84;93.05;99789.52;1630490;87;20987;-68
2021/07/10 04:04:54;;;;;;;29.50;12.05;;;;;;;19.95;91.79;99791.90;1611097;87;21094;-68
2021/07/10 04:07:22;;;;;;;23.95;11.63;;;;;;;20.07;91.37;99790.90;1637040;86;20906;-68
2021/07/10 04:09:48;;;;;;;19.42;9.20;;;;;;;20.20;90.95;99799.28;1625065;87;21006;-69
2021/07/10 04:12:15;;;;;;;13.08;8.30;;;;;;;20.35;90.07;99796.89;1601676;87;20983;-68
2021/07/10 04:14:42;;;;;;;20.20;9.55;;;;;;;20.49;87.81;99796.34;1616543;87;21046;-68
2021/07/10 04:17:09;;;;;;;15.05;9.13;;;;;;;20.63;88.14;99790.16;1617582;87;21741;-67
2021/07/10 04:19:35;;;;;;;19.48;8.80;;;;;;;20.75;88.99;99783.77;1648881;85;21759;-67
2021/07/10 04:22:02;;;;;;;15.98;8.50;;;;;;;20.86;89.13;99789.45;1651595;85;20970;-67
2021/07/10 04:24:30;;;;;;;11.18;7.85;;;;;;;20.96;87.65;99787.39;1653777;85;21084;-68
2021/07/10 04:26:56;;;;;;;13.65;8.15;;;;;;;21.10;86.05;99787.57;1652918;85;21138;-68
2021/07/10 04:29:23;;;;;;;20.97;8.48;;;;;;;21.25;85.94;99783.58;1663495;85;20961;-68
2021/07/10 04:31:51;;;;;;;14.63;7.65;;;;;;;21.43;85.66;99782.56;1644868;85;21196;-68
2021/07/10 04:34:18;;;;;;;15.85;8.63;;;;;;;21.58;83.52;99780.72;1650031;85;21507;-67
2021/07/10 04:36:44;;;;;;;28.50;16.65;;;;;;;21.74;84.19;99791.66;1652636;85;21437;-67
2021/07/10 04:39:11;;;;;;;36.33;16.02;;;;;;;21.86;83.41;99787.77;1672117;85;21572;-66
2021/07/10 04:41:38;;;;;;;30.55;14.93;;;;;;;21.94;83.58;99776.27;1656059;85;21069;-68
2021/07/10 04:44:04;;;;;;;17.87;9.68;;;;;;;22.05;82.87;99773.56;1658692;85;21116;-66
2021/07/10 04:46:31;;;;;;;19.55;9.00;;;;;;;22.14;81.70;99771.24;1645316;85;21691;-67
2021/07/10 04:48:58;;;;;;;14.73;9.13;;;;;;;22.24;80.15;99766.92;1657822;85;21120;-72
2021/07/10 04:51:24;;;;;;;18.80;8.80;;;;;;;22.32;79.94;99768.58;1655493;85;21108;-73
2021/07/10 04:53:51;;;;;;;11.90;7.42;;;;;;;22.38;79.37;99766.42;1640810;85;20970;-68
2021/07/10 04:56:18;;;;;;;18.85;6.97;;;;;;;22.47;78.68;99772.27;1657811;85;21089;-69
2021/07/10 04:58:44;;;;;;;12.28;6.03;;;;;;;22.56;78.68;99772.09;1674087;84;21485;-67
2021/07/10 05:01:12;;;;;;;10.18;5.58;;;;;;;22.67;77.38;99765.97;1661066;85;20981;-69
2021/07/10 05:03:40;;;;;;;6.62;5.30;;;;;;;22.82;76.73;99764.67;1657176;85;20970;-69
2021/07/10 05:06:09;;;;;;;10.08;6.28;;;;;;;22.98;77.01;99772.95;1664791;85;21417;-68
2021/07/10 05:08:36;;;;;;;9.70;5.40;;;;;;;23.13;75.38;99765.37;1652468;85;21206;-71
2021/07/10 05:11:04;;;;;;;12.68;7.70;;;;;;;23.29;74.73;99760.22;1649150;85;20918;-70
2021/07/10 05:13:32;;;;;;;12.70;8.18;;;;;;;23.41;74.33;99754.05;1643438;85;21132;-69
2021/07/10 05:15:58;;;;;;;12.20;8.75;;;;;;;23.54;73.93;99757.51;1656997;85;21073;-76
2021/07/10 05:18:25;;;;;;;9.45;6.15;;;;;;;23.63;72.05;99751.52;1650899;85;21068;-70
2021/07/10 05:20:51;;;;;;;12.23;5.92;;;;;;;23.70;71.61;99755.09;1621684;87;21157;-71
2021/07/10 05:23:18;;;;;;;13.55;6.40;;;;;;;23.77;71.79;99757.70;1628472;87;21156;-72
2021/07/10 05:25:45;;;;;;;20.40;6.10;;;;;;;23.88;71.59;99756.52;1613264;88;21029;-72
2021/07/10 05:28:12;;;;;;;10.50;6.78;;;;;;;24.02;71.06;99760.72;1615460;88;20997;-71
2021/07/10 05:30:38;;;;;;;9.73;6.95;;;;;;;24.17;70.02;99758.70;1596574;88;20982;-73
2021/07/10 05:33:06;;;;;;;10.80;5.97;;;;;;;24.31;69.22;99761.50;1657682;84;21149;-72
2021/07/10 05:35:33;;;;;;;11.15;6.33;;;;;;;24.41;68.34;99761.88;1613579;88;20955;-73
2021/07/10 05:38:03;;;;;;;16.25;6.55;;;;;;;24.49;68.53;99764.27;1615460;88;21030;-73
2021/07/10 05:40:29;;;;;;;10.82;6.22;;;;;;;24.62;68.63;99761.23;1676054;84;21166;-72
2021/07/10 05:42:57;;;;;;;11.43;5.70;;;;;;;24.75;66.80;99767.81;1675558;85;21616;-73
2021/07/10 05:45:23;;;;;;;14.13;5.78;;;;;;;24.86;66.67;99767.95;1678789;85;21137;-71
2021/07/10 05:47:50;;;;;;;10.78;5.35;;;;;;;24.97;66.32;99765.13;1674401;84;20973;-71
2021/07/10 05:50:17;;;;;;;9.25;5.90;;;;;;;25.07;66.28;99761.48;1676088;85;21069;-71
2021/07/10 05:52:43;;;;;;;10.25;5.97;;;;;;;25.16;66.01;99760.44;1677778;84;21020;-71
2021/07/10 05:55:10;;;;;;;12.28;6.17;;;;;;;25.26;66.34;99765.20;1647308;85;20965;-71
2021/07/10 05:57:36;;;;;;;10.50;5.25;;;;;;;25.37;65.91;99758.72;1654748;85;21101;-71
2021/07/10 06:00:09;;;;;;;10.88;6.33;;;;;;;25.47;65.93;99763.45;1654382;85;21452;-72
2021/07/10 06:02:37;;;;;;;6.40;4.62;;;;;;;25.56;64.25;99763.19;1657929;85;21029;-74
2021/07/10 06:05:06;;;;;;;7.15;4.78;;;;;;;25.62;63.35;99762.95;1594576;88;21101;-70
2021/07/10 06:07:32;;;;;;;9.58;4.90;;;;;;;25.69;63.05;99769.16;1648026;86;21070;-72
2021/07/10 06:09:58;;;;;;;10.13;4.90;;;;;;;25.79;62.52;99761.86;1612708;87;21151;-75
2021/07/10 06:12:25;;;;;;;7.35;4.75;;;;;;;25.92;63.38;99769.98;1664222;85;21002;-75
2021/07/10 06:14:51;;;;;;;7.20;4.90;;;;;;;26.01;62.04;99759.03;1686545;83;20950;-72
2021/07/10 06:17:17;;;;;;;11.63;6.35;;;;;;;26.06;61.07;99767.03;1683909;83;21077;-72
2021/07/10 06:19:45;;;;;;;6.22;4.87;;;;;;;26.10;60.78;99770.61;1678487;84;20966;-70
2021/07/10 06:22:11;;;;;;;7.95;4.70;;;;;;;26.13;59.45;99771.80;1688351;84;21130;-70
2021/07/10 06:24:37;;;;;;;8.93;5.12;;;;;;;26.17;58.46;99771.95;1644394;86;20979;-71
2021/07/10 06:27:04;;;;;;;5.42;3.85;;;;;;;26.23;58.24;99762.46;1675890;84;21018;-70
2021/07/10 06:29:31;;;;;;;8.30;5.28;;;;;;;26.27;58.35;99768.86;1660896;84;21027;-71
2021/07/10 06:31:57;;;;;;;7.17;4.28;;;;;;;26.34;57.74;99768.02;1653383;86;21433;-70
2021/07/10 06:34:24;;;;;;;44.10;12.50;;;;;;;26.43;57.26;99773.35;1631816;87;21802;-71
2021/07/10 06:36:50;;;;;;;35.50;7.20;;;;;;;26.53;57.90;99778.08;1649375;85;21025;-71
2021/07/10 06:39:19;;;;;;;39.90;7.03;;;;;;;26.58;57.17;99773.36;1651090;87;21029;-70
2021/07/10 06:41:45;;;;;;;16.67;5.28;;;;;;;26.52;56.90;99775.67;1675522;84;21574;-71
2021/07/10 06:44:12;;;;;;;9.43;4.55;;;;;;;26.46;57.54;99773.13;1685518;83;21506;-70
2021/07/10 06:46:38;;;;;;;7.25;4.53;;;;;;;26.49;58.62;99769.48;1690611;84;21841;-71
2021/07/10 06:49:05;;;;;;;5.92;4.30;;;;;;;26.58;57.92;99776.18;1702646;84;20975;-69
2021/07/10 06:51:31;;;;;;;6.17;5.03;;;;;;;26.65;56.75;99778.92;1654554;85;20965;-71
2021/07/10 06:53:58;;;;;;;9.25;4.85;;;;;;;26.71;56.62;99783.48;1672766;85;20990;-71
2021/07/10 06:56:24;;;;;;;14.25;4.67;;;;;;;26.76;56.48;99772.37;1641230;86;20907;-72
2021/07/10 06:58:51;;;;;;;8.58;4.95;;;;;;;26.82;55.62;99778.53;1620232;87;21569;-72
2021/07/10 07:01:18;;;;;;;19.05;6.45;;;;;;;26.89;55.69;99782.67;1613033;87;21134;-72
2021/07/10 07:03:46;;;;;;;12.78;5.45;;;;;;;26.96;55.27;99778.40;1584106;89;21093;-69
2021/07/10 07:06:12;;;;;;;13.00;5.17;;;;;;;27.06;54.90;99779.48;1631913;87;21163;-70
2021/07/10 07:08:40;;;;;;;15.28;5.35;;;;;;;27.15;55.62;99784.61;1687741;84;21030;-70
2021/07/10 07:11:07;;;;;;;11.57;4.90;;;;;;;27.26;55.97;99779.60;1674151;84;21123;-71
2021/07/10 07:13:34;;;;;;;6.92;5.03;;;;;;;27.36;56.17;99779.27;1633115;85;20965;-71
2021/07/10 07:16:01;;;;;;;26.40;7.45;;;;;;;27.43;55.30;99781.38;1650846;83;21032;-71
2021/07/10 07:18:28;;;;;;;54.15;9.83;;;;;;;27.50;57.07;99779.08;1662919;83;21098;-72
2021/07/10 07:20:55;;;;;;;16.57;5.53;;;;;;;27.61;56.64;99779.14;1648291;84;21525;-72
2021/07/10 07:23:21;;;;;;;32.05;7.45;;;;;;;27.72;56.21;99773.34;1676372;84;21562;-69
2021/07/10 07:25:48;;;;;;;21.35;6.10;;;;;;;27.84;54.06;99778.97;1660968;84;20998;-72
2021/07/10 07:28:15;;;;;;;32.05;6.85;;;;;;;27.88;52.64;99780.51;1652811;84;21037;-72
2021/07/10 07:30:41;;;;;;;11.20;5.28;;;;;;;27.91;52.18;99777.45;1647114;85;21180;-69
2021/07/10 07:33:09;;;;;;;9.18;5.03;;;;;;;27.94;52.70;99773.16;1650498;87;21177;-73
2021/07/10 07:35:37;;;;;;;6.03;4.40;;;;;;;27.99;50.72;99769.05;1650446;86;21325;-71
2021/07/10 07:38:03;;;;;;;6.90;4.35;;;;;;;28.09;50.57;99772.92;1616039;87;21012;-72
2021/07/10 07:40:30;;;;;;;11.53;5.30;;;;;;;28.14;49.03;99769.61;1649353;86;21101;-71
2021/07/10 07:42:56;;;;;;;15.00;5.90;;;;;;;28.08;51.15;99767.89;1623216;87;21150;-70
2021/07/10 07:45:24;;;;;;;9.65;5.08;;;;;;;28.11;51.33;99773.29;1610428;87;21072;-74
2021/07/10 07:47:50;;;;;;;10.05;4.55;;;;;;;28.25;52.50;99761.78;1571318;89;21156;-71
2021/07/10 07:50:17;;;;;;;11.35;5.10;;;;;;;28.39;50.81;99763.52;1599495;88;20971;-71
2021/07/10 07:52:44;;;;;;;10.23;4.90;;;;;;;28.56;50.47;99763.20;1602681;88;21517;-71
2021/07/10 07:55:11;;;;;;;14.38;4.75;;;;;;;28.73;49.43;99763.28;1602929;88;21098;-71
2021/07/10 07:57:39;;;;;;;6.70;4.62;;;;;;;28.87;49.51;99761.00;1607037;88;21550;-72
2021/07/10 08:00:10;;;;;;;7.47;4.28;;;;;;;29.02;48.01;99765.72;1625615;86;21498;-70
2021/07/10 08:02:36;;;;;;;28.85;5.78;;;;;;;29.07;46.55;99763.00;1588333;89;21021;-72
2021/07/10 08:05:05;;;;;;;16.65;5.03;;;;;;;29.15;46.48;99761.61;1631851;86;21053;-72
2021/07/10 08:07:31;;;;;;;38.83;8.35;;;;;;;29.24;45.67;99765.44;1650103;86;21077;-70
2021/07/10 08:09:59;;;;;;;36.88;7.37;;;;;;;29.38;45.40;99760.71;1620820;86;21045;-71
2021/07/10 08:12:26;;;;;;;11.97;4.47;;;;;;;29.55;44.50;99761.72;1677754;83;21837;-69
2021/07/10 08:14:54;;;;;;;9.13;4.62;;;;;;;29.68;44.68;99763.24;1670129;83;20988;-70
2021/07/10 08:17:21;;;;;;;6.90;4.25;;;;;;;29.81;44.04;99761.92;1643251;85;20939;-70
2021/07/10 08:19:47;;;;;;;6.65;3.87;;;;;;;29.79;42.56;99772.89;1631889;87;20941;-70
2021/07/10 08:22:15;;;;;;;9.28;3.62;;;;;;;29.75;43.23;99759.45;1630537;87;21005;-71
2021/07/10 08:24:42;;;;;;;8.45;4.40;;;;;;;29.73;42.62;99766.16;1654884;84;21845;-75
2021/07/10 08:27:09;;;;;;;6.40;4.22;;;;;;;29.88;43.38;99771.66;1672743;84;21072;-77
2021/07/10 08:29:36;;;;;;;6.45;4.00;;;;;;;30.04;40.67;99767.42;1667569;84;21115;-70
2021/07/10 08:32:05;;;;;;;15.05;4.87;;;;;;;30.31;41.63;99757.84;1667319;84;21058;-70
2021/07/10 08:34:31;;;;;;;6.47;4.00;;;;;;;30.64;40.10;99765.03;1660961;84;20942;-72
2021/07/10 08:37:02;;;;;;;5.67;4.37;;;;;;;30.98;38.76;99758.80;1632972;86;20950;-69
2021/07/10 08:39:29;;;;;;;10.20;4.30;;;;;;;31.20;40.16;99757.55;1641365;86;21114;-71
2021/07/10 08:41:56;;;;;;;8.00;4.30;;;;;;;31.27;37.49;99757.95;1636177;86;20910;-70
2021/07/10 08:44:24;;;;;;;7.67;3.77;;;;;;;31.28;38.06;99761.76;1649874;85;21026;-72
2021/07/10 08:46:50;;;;;;;6.03;4.03;;;;;;;31.25;38.20;99757.61;1660318;85;21030;-72
2021/07/10 08:49:18;;;;;;;7.20;3.62;;;;;;;31.31;36.51;99757.23;1635242;86;21929;-72
2021/07/10 08:51:46;;;;;;;9.80;4.03;;;;;;;31.45;37.07;99756.16;1653459;84;21001;-70
2021/07/10 08:54:17;;;;;;;6.45;3.77;;;;;;;31.62;35.69;99754.02;1651539;84;21614;-70
2021/07/10 08:56:44;;;;;;;5.03;3.67;;;;;;;31.79;36.80;99752.65;1659475;84;21012;-71
2021/07/10 08:59:11;;;;;;;5.95;3.55;;;;;;;32.11;35.81;99749.37;1657062;83;21008;-72
2021/07/10 09:01:40;;;;;;;8.50;3.92;;;;;;;32.31;36.50;99752.75;1655340;84;21169;-71
2021/07/10 09:04:06;;;;;;;5.90;4.08;;;;;;;32.62;35.55;99748.58;1662947;84;21051;-71
2021/07/10 09:06:33;;;;;;;5.20;3.52;;;;;;;32.92;37.58;99746.31;1684436;83;21097;-69
2021/07/10 09:09:00;;;;;;;7.47;3.92;;;;;;;33.08;34.11;99741.80;1659051;84;21041;-70
2021/07/10 09:11:28;;;;;;;8.95;3.25;;;;;;;33.05;35.10;99749.21;1674107;83;21038;-71
2021/07/10 09:13:57;;;;;;;11.00;4.22;;;;;;;32.89;34.95;99740.13;1676933;83;21575;-72
2021/07/10 09:16:34;;;;;;;10.38;4.30;;;;;;;32.78;35.69;99737.69;1633839;85;21446;-71
2021/07/10 09:19:10;;;;;;;7.05;3.85;;;;;;;32.87;36.21;99743.43;1607523;87;21112;-69
2021/07/10 09:21:50;;;;;;;4.12;3.70;;;;;;;32.95;35.41;99743.30;1659758;83;21113;-73
2021/07/10 09:24:32;;;;;;;5.05;4.00;;;;;;;33.04;36.13;99741.94;1645565;83;21091;-71
2021/07/10 09:27:03;;;;;;;5.30;3.65;;;;;;;33.20;36.62;99735.87;1620135;86;21731;-72
2021/07/10 09:29:32;;;;;;;14.35;3.90;;;;;;;33.40;35.79;99730.62;1623726;86;27077;-72
2021/07/10 09:32:03;;;;;;;9.60;3.80;;;;;;;33.51;37.01;99735.23;1628337;86;21721;-71
2021/07/10 09:34:39;;;;;;;7.42;4.05;;;;;;;33.60;34.73;99735.27;1671195;83;21020;-70
2021/07/10 09:37:13;;;;;;;6.05;4.30;;;;;;;33.42;33.28;99736.02;1679983;83;21498;-71
2021/07/10 09:39:47;;;;;;;5.37;3.87;;;;;;;33.22;34.71;99732.72;1674858;83;23314;-74
2021/07/10 09:42:15;;;;;;;5.85;3.77;;;;;;;33.07;34.65;99724.58;1623850;86;21030;-70
2021/07/10 09:44:50;;;;;;;5.72;4.08;;;;;;;32.94;35.12;99731.77;1608358;87;21092;-70
2021/07/10 09:47:26;;;;;;;7.30;3.35;;;;;;;32.79;33.62;99733.58;1633505;86;21081;-69
2021/07/10 09:49:53;;;;;;;7.65;3.60;;;;;;;32.86;34.60;99735.37;1672372;83;21026;-74
2021/07/10 09:52:22;;;;;;;5.85;3.70;;;;;;;33.19;36.95;99730.81;1688503;83;21141;-70
2021/07/10 09:54:52;;;;;;;4.92;3.80;;;;;;;33.49;35.46;99736.99;1659391;85;20963;-71
2021/07/10 09:57:30;;;;;;;4.45;3.50;;;;;;;33.58;35.09;99735.58;1694881;84;21445;-71
2021/07/10 10:00:00;;;;;;;8.43;3.65;;;;;;;33.76;36.13;99734.22;1644343;85;21017;-72
2021/07/10 10:02:30;;;;;;;6.55;3.47;;;;;;;33.85;35.58;99734.28;1631764;85;21572;-71
2021/07/10 10:05:07;;;;;;;4.80;3.87;;;;;;;33.87;32.87;99727.48;1619895;86;23385;-71
2021/07/10 10:07:51;;;;;;;5.20;3.60;;;;;;;33.77;32.16;99731.53;1614875;87;20997;-71
2021/07/10 10:10:33;;;;;;;5.37;3.50;;;;;;;33.78;33.55;99728.84;1629656;85;21013;-72
2021/07/10 10:13:11;;;;;;;9.40;4.08;;;;;;;34.10;33.03;99726.08;1676523;83;21000;-78
2021/07/10 10:15:43;;;;;;;6.58;3.92;;;;;;;34.11;32.96;99729.88;1625206;86;20952;-73
2021/07/10 10:18:15;;;;;;;8.08;3.92;;;;;;;34.12;34.86;99724.97;1610827;87;21019;-75
2021/07/10 10:20:41;;;;;;;4.17;3.50;;;;;;;34.26;32.17;99728.64;1615172;87;21253;-73
2021/07/10 10:23:08;;;;;;;5.87;3.30;;;;;;;34.30;32.78;99724.20;1596295;87;21106;-69
2021/07/10 10:25:35;;;;;;;5.65;3.80;;;;;;;34.37;32.56;99719.66;1602521;88;21533;-78
2021/07/10 10:28:06;;;;;;;6.97;4.12;;;;;;;34.30;33.91;99722.78;1608912;88;20960;-72
2021/07/10 10:30:33;;;;;;;7.65;3.25;;;;;;;34.16;33.94;99716.28;1618898;87;21143;-79
2021/07/10 10:32:59;;;;;;;5.65;3.72;;;;;;;33.93;33.68;99714.84;1616275;88;20993;-86
2021/07/10 10:35:26;;;;;;;8.13;4.10;;;;;;;33.75;31.81;99712.71;1619245;88;20976;-79
2021/07/10 10:37:52;;;;;;;11.65;4.00;;;;;;;33.70;33.43;99708.42;1613241;87;21000;-80
2021/07/10 10:40:25;;;;;;;5.28;3.22;;;;;;;33.81;33.44;99709.44;1619032;87;21003;-76
2021/07/10 10:43:00;;;;;;;4.50;3.75;;;;;;;33.57;34.04;99706.33;1608722;87;21059;-73
2021/07/10 10:45:30;;;;;;;3.87;3.58;;;;;;;33.10;34.47;99707.38;1616855;88;20929;-74
2021/07/10 10:47:57;;;;;;;;;;;;;;;32.66;34.71;99713.72;1611123;88;20920;-74
2021/07/10 10:50:29;;;;;;;4.70;3.67;;;;;;;32.40;34.94;99713.66;1619101;88;20129;-73
2021/07/10 10:52:57;;;;;;;6.33;3.83;;;;;;;32.48;36.58;99705.84;1610747;87;21165;-76
2021/07/10 10:55:33;;;;;;;5.00;3.65;;;;;;;32.84;34.96;99699.50;1608709;87;21847;-75
2021/07/10 10:58:15;;;;;;;6.62;3.60;;;;;;;33.14;36.07;99704.39;1608366;88;20964;-75
2021/07/10 11:00:44;;;;;;;6.25;3.40;;;;;;;33.44;34.13;99705.05;1620804;87;20984;-86
2021/07/10 11:03:18;;;;;;;6.97;3.80;;;;;;;33.63;35.04;99698.76;1628578;85;37944;-81
2021/07/10 11:05:56;;;;;;;3.65;3.22;;;;;;;33.89;33.30;99697.91;1604429;88;20956;-83
2021/07/10 11:08:30;;;;;;;8.75;3.40;;;;;;;34.04;34.96;99698.89;1603842;87;21165;-75
2021/07/10 11:11:02;;;;;;;5.83;3.47;;;;;;;34.12;33.48;99698.70;1646048;86;20919;-76
2021/07/10 11:13:40;;;;;;;6.28;3.87;;;;;;;34.05;31.13;99695.41;1608596;87;21149;-76
2021/07/10 11:16:19;;;;;;;4.95;3.40;;;;;;;33.94;31.99;99697.28;1644130;86;20975;-75
2021/07/10 11:18:50;;;;;;;;;;;;;;;34.02;31.98;99689.23;1617269;87;20927;-75
2021/07/10 11:21:38;;;;;;;4.05;3.10;;;;;;;34.11;32.77;99687.16;1618163;87;21547;-76
2021/07/10 11:24:20;;;;;;;4.25;3.27;;;;;;;34.19;31.04;99688.27;1637305;87;21041;-73
2021/07/10 11:27:00;;;;;;;5.08;3.67;;;;;;;34.10;32.80;99689.84;1603074;87;21050;-73
2021/07/10 11:29:35;;;;;;;6.00;3.50;;;;;;;34.23;32.97;99686.05;1614144;87;21122;-75
2021/07/10 11:32:15;;;;;;;3.55;3.22;;;;;;;34.51;31.42;99681.97;1625811;87;21082;-75